createdAt,value
2023-03-13T00:01:49.685Z,21.37
2023-03-13T00:04:17.852Z,21.29
2023-03-13T00:06:45.750Z,21.39
2023-03-13T00:09:16.521Z,21.36
2023-03-13T00:11:46.128Z,21.35
2023-03-13T00:14:13.863Z,21.16
2023-03-13T00:16:41.899Z,21.34
2023-03-13T00:19:10.388Z,21.04
2023-03-13T00:21:38.501Z,20.84
2023-03-13T00:24:06.743Z,21.33
2023-03-13T00:26:34.533Z,21.36
2023-03-13T00:29:02.261Z,21.38
2023-03-13T00:31:31.629Z,21.26
2023-03-13T00:34:03.899Z,21.35
2023-03-13T00:36:34.137Z,21.26
2023-03-13T00:39:05.193Z,21.26
2023-03-13T00:41:37.000Z,20.59
2023-03-13T00:44:06.050Z,21.33
2023-03-13T00:46:33.889Z,20.94
2023-03-13T00:49:01.805Z,21.34
2023-03-13T00:51:30.292Z,21.31
2023-03-13T00:54:04.053Z,21.21
2023-03-13T00:56:31.883Z,21.11
2023-03-13T00:59:00.646Z,21.34
2023-03-13T01:01:34.540Z,21.32
2023-03-13T01:04:05.800Z,21.11
2023-03-13T01:06:36.171Z,21.29
2023-03-13T01:09:05.934Z,21.31
2023-03-13T01:11:39.211Z,21.26
2023-03-13T01:14:10.901Z,21.09
2023-03-13T01:16:39.144Z,21.28
2023-03-13T01:19:13.621Z,21.07
2023-03-13T01:21:43.342Z,20.93
2023-03-13T01:24:12.223Z,21.26
2023-03-13T01:26:40.163Z,21.26
2023-03-13T01:29:08.094Z,21.20
2023-03-13T01:31:36.471Z,21.11
2023-03-13T01:34:08.368Z,21.25
2023-03-13T01:36:38.040Z,20.94
2023-03-13T01:39:06.397Z,21.20
2023-03-13T01:41:34.454Z,21.14
2023-03-13T01:44:02.261Z,21.15
2023-03-13T01:46:36.133Z,21.10
2023-03-13T01:49:16.960Z,20.86
2023-03-13T01:52:20.631Z,21.12
2023-03-13T01:54:57.986Z,20.75
2023-03-13T01:57:25.742Z,20.98
2023-03-13T01:59:59.472Z,20.89
2023-03-13T02:02:28.388Z,20.87
2023-03-13T02:05:00.818Z,20.74
2023-03-13T02:07:33.782Z,20.84
2023-03-13T02:10:01.905Z,20.70
2023-03-13T02:12:35.227Z,20.97
2023-03-13T02:15:13.801Z,20.72
2023-03-13T02:17:43.336Z,20.81
2023-03-13T02:20:12.606Z,20.81
2023-03-13T02:23:02.168Z,20.93
2023-03-13T02:25:37.626Z,20.88
2023-03-13T02:28:09.222Z,20.69
2023-03-13T02:30:40.151Z,20.90
2023-03-13T02:33:08.049Z,20.45
2023-03-13T02:35:37.347Z,20.89
2023-03-13T02:38:13.810Z,20.87
2023-03-13T02:40:45.513Z,20.88
2023-03-13T02:43:34.535Z,20.88
2023-03-13T02:46:21.955Z,20.89
2023-03-13T02:48:55.994Z,20.84
2023-03-13T02:51:25.173Z,20.93
2023-03-13T02:53:58.977Z,20.90
2023-03-13T02:56:28.307Z,20.84
2023-03-13T02:58:56.825Z,20.32
2023-03-13T03:01:26.733Z,20.74
2023-03-13T03:03:54.747Z,20.29
2023-03-13T03:06:22.473Z,20.44
2023-03-13T03:08:51.027Z,20.80
2023-03-13T03:11:19.269Z,20.58
2023-03-13T03:13:51.801Z,20.71
2023-03-13T03:16:21.635Z,20.49
2023-03-13T03:18:49.368Z,20.75
2023-03-13T03:21:17.175Z,20.74
2023-03-13T03:23:45.042Z,20.56
2023-03-13T03:26:13.903Z,20.51
2023-03-13T03:28:41.932Z,20.86
2023-03-13T03:31:15.261Z,20.76
2023-03-13T03:33:44.371Z,20.80
2023-03-13T03:36:17.247Z,20.77
2023-03-13T03:38:46.572Z,20.44
2023-03-13T03:41:17.809Z,20.84
2023-03-13T03:43:47.484Z,20.85
2023-03-13T03:46:17.829Z,20.74
2023-03-13T03:48:45.758Z,20.39
2023-03-13T03:51:14.883Z,20.79
2023-03-13T03:53:47.627Z,20.81
2023-03-13T03:56:15.889Z,20.82
2023-03-13T03:58:48.688Z,20.84
2023-03-13T04:01:21.739Z,20.74
2023-03-13T04:03:50.912Z,20.82
2023-03-13T04:06:19.862Z,20.82
2023-03-13T04:08:48.416Z,20.83
2023-03-13T04:11:19.300Z,20.53
2023-03-13T04:13:53.645Z,20.65
2023-03-13T04:16:21.625Z,20.87
2023-03-13T04:18:49.781Z,20.81
2023-03-13T04:21:19.018Z,20.66
2023-03-13T04:23:58.515Z,20.85
2023-03-13T04:26:26.337Z,20.81
2023-03-13T04:28:55.884Z,20.61
2023-03-13T04:31:43.911Z,20.70
2023-03-13T04:34:24.195Z,20.72
2023-03-13T04:37:21.351Z,20.47
2023-03-13T04:40:24.548Z,20.47
2023-03-13T04:43:17.032Z,20.59
2023-03-13T04:46:01.277Z,20.74
2023-03-13T04:48:49.336Z,20.84
2023-03-13T04:51:37.302Z,20.78
2023-03-13T04:54:23.824Z,20.73
2023-03-13T04:57:09.840Z,20.81
2023-03-13T04:59:42.660Z,20.81
2023-03-13T05:02:30.724Z,20.73
2023-03-13T05:05:09.440Z,20.74
2023-03-13T05:07:56.014Z,20.78
2023-03-13T05:10:47.428Z,20.49
2023-03-13T05:13:15.074Z,20.71
2023-03-13T05:15:51.879Z,20.83
2023-03-13T05:18:39.545Z,20.74
2023-03-13T05:21:27.505Z,20.63
2023-03-13T05:24:16.425Z,20.52
2023-03-13T05:27:22.828Z,20.83
2023-03-13T05:30:05.350Z,20.82
2023-03-13T05:32:55.988Z,20.70
2023-03-13T05:35:53.170Z,20.85
2023-03-13T05:38:24.160Z,20.81
2023-03-13T05:41:17.837Z,20.85
2023-03-13T05:44:04.332Z,20.86
2023-03-13T05:46:54.849Z,20.78
2023-03-13T05:49:37.744Z,20.62
2023-03-13T05:52:30.003Z,20.69
2023-03-13T05:55:00.754Z,20.80
2023-03-13T05:58:00.742Z,20.79
2023-03-13T06:00:48.883Z,20.49
2023-03-13T06:03:35.389Z,20.71
2023-03-13T06:06:03.847Z,20.64
2023-03-13T06:08:38.024Z,20.61
2023-03-13T06:11:05.729Z,20.81
2023-03-13T06:13:34.788Z,20.55
2023-03-13T06:16:21.236Z,20.91
2023-03-13T06:18:49.727Z,20.83
2023-03-13T06:21:17.469Z,20.66
2023-03-13T06:23:45.228Z,20.63
2023-03-13T06:26:13.042Z,20.87
2023-03-13T06:28:40.977Z,20.81
2023-03-13T06:31:09.005Z,20.89
2023-03-13T06:33:37.411Z,21.02
2023-03-13T06:36:05.720Z,20.88
2023-03-13T06:38:34.160Z,20.60
2023-03-13T06:41:02.254Z,21.04
2023-03-13T06:43:30.578Z,20.68
2023-03-13T06:46:04.084Z,21.10
2023-03-13T06:48:31.850Z,21.01
2023-03-13T06:50:59.739Z,20.98
2023-03-13T06:53:28.407Z,21.04
2023-03-13T06:55:56.511Z,21.03
2023-03-13T06:58:32.016Z,20.56
2023-03-13T07:01:07.012Z,21.10
2023-03-13T07:03:35.813Z,21.08
2023-03-13T07:06:05.693Z,21.06
2023-03-13T07:08:34.465Z,21.04
2023-03-13T07:11:09.811Z,20.84
2023-03-13T07:13:38.655Z,21.03
2023-03-13T07:16:09.342Z,21.00
2023-03-13T07:18:38.411Z,20.97
2023-03-13T07:21:08.207Z,20.79
2023-03-13T07:23:37.347Z,20.67
2023-03-13T07:26:08.928Z,20.93
2023-03-13T07:28:37.889Z,20.76
2023-03-13T07:31:10.399Z,20.64
2023-03-13T07:33:38.328Z,20.84
2023-03-13T07:36:06.387Z,20.65
2023-03-13T07:38:34.498Z,20.82
2023-03-13T07:41:05.781Z,20.93
2023-03-13T07:43:33.945Z,20.94
2023-03-13T07:46:06.014Z,20.95
2023-03-13T07:48:36.289Z,20.84
2023-03-13T07:51:05.796Z,20.99
2023-03-13T07:53:34.758Z,21.03
2023-03-13T07:56:07.740Z,20.64
2023-03-13T07:58:38.789Z,21.05
2023-03-13T08:01:16.827Z,21.04
2023-03-13T08:03:45.923Z,20.96
2023-03-13T08:06:17.323Z,20.99
2023-03-13T08:08:46.328Z,21.11
2023-03-13T08:11:20.150Z,21.14
2023-03-13T08:13:49.901Z,21.07
2023-03-13T08:16:20.760Z,21.21
2023-03-13T08:18:52.870Z,21.13
2023-03-13T08:21:29.312Z,20.88
2023-03-13T08:23:59.863Z,20.99
2023-03-13T08:26:29.502Z,21.09
2023-03-13T08:29:00.221Z,20.90
2023-03-13T08:31:49.236Z,21.23
2023-03-13T08:34:18.492Z,21.16
2023-03-13T08:36:48.298Z,21.29
2023-03-13T08:39:18.465Z,21.31
2023-03-13T08:41:46.929Z,20.97
2023-03-13T08:44:17.495Z,21.24
2023-03-13T08:46:45.872Z,21.23
2023-03-13T08:49:14.211Z,21.38
2023-03-13T08:51:42.648Z,21.31
2023-03-13T08:54:10.629Z,21.33
2023-03-13T08:56:38.756Z,21.31
2023-03-13T08:59:07.135Z,21.06
2023-03-13T09:01:36.334Z,21.20
2023-03-13T09:04:05.551Z,21.27
2023-03-13T09:06:37.014Z,21.19
2023-03-13T09:09:06.077Z,21.26
2023-03-13T09:11:34.804Z,21.28
2023-03-13T09:14:02.646Z,21.12
2023-03-13T09:16:33.327Z,21.33
2023-03-13T09:19:01.786Z,21.24
2023-03-13T09:21:34.410Z,21.01
2023-03-13T09:24:02.588Z,21.22
2023-03-13T09:26:31.094Z,21.27
2023-03-13T09:28:59.420Z,21.02
2023-03-13T09:31:32.902Z,21.24
2023-03-13T09:34:01.386Z,21.29
2023-03-13T09:36:29.757Z,21.02
2023-03-13T09:39:00.178Z,21.27
2023-03-13T09:41:35.317Z,21.27
2023-03-13T09:44:20.796Z,21.16
2023-03-13T09:46:54.545Z,21.22
2023-03-13T09:49:35.146Z,21.28
2023-03-13T09:52:17.663Z,21.22
2023-03-13T09:55:22.901Z,21.05
2023-03-13T09:58:13.918Z,21.37
2023-03-13T10:00:46.696Z,21.31
2023-03-13T10:03:23.843Z,21.11
2023-03-13T10:05:57.355Z,21.41
2023-03-13T10:08:30.738Z,21.46
2023-03-13T10:11:11.900Z,21.47
2023-03-13T10:13:47.045Z,21.45
2023-03-13T10:16:39.169Z,21.37
2023-03-13T10:19:15.909Z,21.09
2023-03-13T10:21:50.058Z,21.14
2023-03-13T10:24:21.036Z,21.40
2023-03-13T10:26:48.800Z,21.38
2023-03-13T10:29:23.517Z,21.41
2023-03-13T10:32:06.194Z,21.27
2023-03-13T10:35:20.519Z,21.10
2023-03-13T10:37:48.438Z,21.46
2023-03-13T10:40:27.983Z,21.49
2023-03-13T10:43:08.274Z,21.39
2023-03-13T10:45:37.872Z,21.62
2023-03-13T10:48:15.384Z,21.66
2023-03-13T10:50:45.729Z,21.68
2023-03-13T10:53:28.911Z,21.66
2023-03-13T10:56:08.941Z,21.72
2023-03-13T11:01:18.089Z,21.70
2023-03-13T11:03:47.969Z,21.69
2023-03-13T11:06:26.881Z,21.68
2023-03-13T11:09:17.867Z,21.69
2023-03-13T11:11:53.237Z,21.68
2023-03-13T11:14:23.788Z,21.58
2023-03-13T11:17:15.984Z,21.67
2023-03-13T11:19:44.343Z,21.70
2023-03-13T11:22:15.541Z,21.71
2023-03-13T11:25:11.406Z,21.78
2023-03-13T11:27:49.511Z,21.79
2023-03-13T11:30:28.396Z,21.89
2023-03-13T11:33:05.475Z,21.60
2023-03-13T11:35:47.317Z,21.95
2023-03-13T11:39:13.887Z,21.81
2023-03-13T11:42:02.611Z,21.97
2023-03-13T11:45:01.473Z,21.96
2023-03-13T11:47:36.787Z,21.96
2023-03-13T11:50:13.528Z,21.82
2023-03-13T11:53:02.795Z,21.98
2023-03-13T11:55:36.886Z,21.96
2023-03-13T11:58:19.722Z,21.97
2023-03-13T12:01:05.630Z,21.86
2023-03-13T12:03:55.217Z,21.91
2023-03-13T12:06:44.708Z,21.90
2023-03-13T12:09:28.352Z,21.74
2023-03-13T12:12:05.935Z,21.86
2023-03-13T12:14:45.359Z,21.86
2023-03-13T12:17:30.245Z,22.05
2023-03-13T12:20:17.873Z,21.91
2023-03-13T12:22:55.095Z,22.08
2023-03-13T12:28:28.531Z,21.99
2023-03-13T12:31:19.646Z,21.72
2023-03-13T12:34:07.740Z,21.98
2023-03-13T12:37:08.716Z,21.89
2023-03-13T12:40:09.443Z,22.05
2023-03-13T12:42:48.706Z,22.02
2023-03-13T12:45:20.086Z,22.09
2023-03-13T12:48:15.337Z,22.10
2023-03-13T12:51:17.295Z,22.08
2023-03-13T12:54:03.683Z,22.08
2023-03-13T12:56:45.841Z,22.08
2023-03-13T12:59:19.008Z,21.84
2023-03-13T13:01:51.328Z,21.92
2023-03-13T13:04:32.502Z,21.86
2023-03-13T13:07:08.279Z,22.02
2023-03-13T13:09:42.134Z,21.82
2023-03-13T13:12:11.052Z,22.05
2023-03-13T13:14:48.084Z,22.06
2023-03-13T13:17:34.578Z,22.04
2023-03-13T13:20:30.667Z,22.06
2023-03-13T13:23:24.035Z,22.06
2023-03-13T13:25:53.849Z,22.06
2023-03-13T13:28:33.758Z,22.05
2023-03-13T13:31:02.407Z,21.72
2023-03-13T13:33:31.134Z,22.03
2023-03-13T13:36:15.850Z,21.99
2023-03-13T13:38:44.578Z,21.78
2023-03-13T13:41:12.968Z,21.95
2023-03-13T13:43:45.832Z,21.95
2023-03-13T13:46:20.893Z,21.97
2023-03-13T13:49:06.931Z,21.65
2023-03-13T13:51:35.287Z,21.91
2023-03-13T13:54:23.361Z,22.00
2023-03-13T13:57:10.171Z,21.97
2023-03-13T13:59:49.611Z,21.78
2023-03-13T14:02:30.760Z,21.63
2023-03-13T14:05:37.120Z,21.98
2023-03-13T14:08:14.128Z,21.98
2023-03-13T14:10:43.396Z,21.97
2023-03-13T14:13:19.668Z,21.80
2023-03-13T14:15:49.955Z,21.88
2023-03-13T14:18:28.446Z,21.98
2023-03-13T14:20:56.302Z,21.98
2023-03-13T14:23:33.024Z,21.96
2023-03-13T14:26:30.428Z,21.37
2023-03-13T14:29:03.376Z,21.86
2023-03-13T14:31:36.214Z,21.48
2023-03-13T14:34:10.011Z,21.66
2023-03-13T14:37:14.955Z,21.84
2023-03-13T14:39:46.888Z,21.69
2023-03-13T14:44:50.359Z,21.82
2023-03-13T14:47:32.811Z,21.59
2023-03-13T14:50:04.731Z,21.78
2023-03-13T14:52:34.251Z,21.72
2023-03-13T14:55:06.536Z,21.59
2023-03-13T14:57:35.767Z,21.53
2023-03-13T15:00:30.850Z,21.64
2023-03-13T15:03:17.547Z,21.72
2023-03-13T15:05:52.559Z,21.53
2023-03-13T15:08:24.969Z,21.67
2023-03-13T15:10:53.212Z,21.61
2023-03-13T15:13:27.428Z,21.72
2023-03-13T15:15:56.054Z,21.70
2023-03-13T15:18:26.472Z,21.65
2023-03-13T15:21:19.444Z,21.70
2023-03-13T15:26:24.334Z,21.57
2023-03-13T15:28:52.434Z,21.63
2023-03-13T15:31:24.065Z,21.47
2023-03-13T15:33:57.126Z,21.71
2023-03-13T15:36:26.190Z,21.50
2023-03-13T15:38:54.454Z,21.49
2023-03-13T15:41:23.237Z,21.33
2023-03-13T15:43:52.916Z,21.68
2023-03-13T15:46:21.235Z,21.44
2023-03-13T15:48:49.784Z,21.63
2023-03-13T15:51:17.882Z,21.65
2023-03-13T15:53:46.477Z,21.47
2023-03-13T15:56:20.006Z,21.66
2023-03-13T15:58:48.738Z,21.21
2023-03-13T16:01:18.159Z,21.57
2023-03-13T16:03:46.548Z,21.42
2023-03-13T16:06:21.082Z,21.65
2023-03-13T16:08:51.652Z,21.50
2023-03-13T16:11:19.671Z,21.58
2023-03-13T16:13:47.367Z,21.56
2023-03-13T16:16:21.401Z,21.21
2023-03-13T16:18:51.366Z,21.15
2023-03-13T16:21:26.125Z,21.23
2023-03-13T16:23:54.676Z,21.45
2023-03-13T16:26:25.323Z,21.40
2023-03-13T16:28:55.341Z,21.57
2023-03-13T16:31:27.650Z,21.39
2023-03-13T16:33:58.282Z,21.31
2023-03-13T16:36:29.710Z,21.41
2023-03-13T16:38:59.086Z,21.69
2023-03-13T16:41:28.739Z,21.64
2023-03-13T16:43:58.162Z,21.59
2023-03-13T16:46:41.282Z,21.56
2023-03-13T16:49:17.976Z,21.58
2023-03-13T16:51:47.035Z,21.35
2023-03-13T16:54:14.818Z,21.45
2023-03-13T16:56:43.772Z,21.53
2023-03-13T16:59:18.428Z,21.66
2023-03-13T17:01:47.314Z,21.62
2023-03-13T17:04:15.238Z,21.32
2023-03-13T17:06:44.984Z,21.35
2023-03-13T17:09:17.335Z,21.60
2023-03-13T17:11:45.752Z,21.35
2023-03-13T17:14:13.735Z,21.23
2023-03-13T17:16:44.082Z,21.50
2023-03-13T17:19:15.456Z,21.49
2023-03-13T17:21:43.343Z,21.40
2023-03-13T17:24:11.170Z,21.37
2023-03-13T17:26:40.322Z,21.34
2023-03-13T17:29:11.816Z,21.52
2023-03-13T17:31:41.276Z,21.42
2023-03-13T17:34:09.892Z,21.50
2023-03-13T17:36:37.679Z,21.26
2023-03-13T17:39:08.984Z,21.35
2023-03-13T17:41:37.217Z,21.34
2023-03-13T17:44:05.597Z,21.33
2023-03-13T17:46:43.305Z,21.41
2023-03-13T17:49:13.334Z,21.43
2023-03-13T17:51:41.872Z,21.43
2023-03-13T17:54:09.707Z,21.58
2023-03-13T17:56:40.408Z,21.59
2023-03-13T17:59:13.808Z,21.46
2023-03-13T18:01:42.416Z,21.34
2023-03-13T18:04:11.054Z,21.52
2023-03-13T18:06:40.321Z,21.61
2023-03-13T18:09:15.555Z,21.64
2023-03-13T18:11:43.437Z,21.62
2023-03-13T18:14:11.740Z,21.65
2023-03-13T18:16:47.598Z,21.62
2023-03-13T18:19:26.800Z,21.57
2023-03-13T18:21:56.083Z,21.20
2023-03-13T18:24:23.902Z,21.49
2023-03-13T18:26:51.871Z,21.29
2023-03-13T18:29:26.895Z,20.01
2023-03-13T18:32:00.696Z,20.70
2023-03-13T18:34:29.432Z,20.01
2023-03-13T18:37:03.886Z,20.53
2023-03-13T18:39:33.295Z,21.49
2023-03-13T18:42:02.183Z,20.91
2023-03-13T18:44:30.041Z,21.17
2023-03-13T18:46:57.879Z,21.45
2023-03-13T18:49:26.972Z,21.19
2023-03-13T18:51:54.706Z,20.39
2023-03-13T18:54:22.918Z,21.46
2023-03-13T18:56:51.110Z,20.87
2023-03-13T18:59:21.419Z,20.65
2023-03-13T19:01:50.102Z,20.04
2023-03-13T19:04:19.324Z,20.17
2023-03-13T19:06:48.221Z,21.10
2023-03-13T19:09:42.115Z,21.10
2023-03-13T19:12:11.961Z,20.43
2023-03-13T19:14:40.005Z,21.39
2023-03-13T19:17:17.850Z,20.73
2023-03-13T19:19:47.292Z,21.45
2023-03-13T19:22:15.183Z,20.40
2023-03-13T19:24:43.100Z,19.90
2023-03-13T19:27:14.875Z,20.31
2023-03-13T19:29:44.968Z,21.03
2023-03-13T19:32:18.619Z,21.57
2023-03-13T19:34:48.268Z,21.09
2023-03-13T19:37:17.372Z,21.14
2023-03-13T19:39:46.638Z,20.85
2023-03-13T19:42:15.255Z,20.75
2023-03-13T19:44:43.466Z,20.81
2023-03-13T19:47:19.225Z,20.08
2023-03-13T19:49:51.154Z,21.02
2023-03-13T19:52:19.534Z,21.25
2023-03-13T19:54:47.566Z,21.50
2023-03-13T19:57:17.987Z,20.07
2023-03-13T19:59:45.975Z,20.00
2023-03-13T20:02:14.452Z,19.92
2023-03-13T20:04:45.963Z,20.66
2023-03-13T20:07:17.421Z,20.77
2023-03-13T20:09:45.340Z,20.63
2023-03-13T20:12:13.468Z,20.51
2023-03-13T20:14:43.314Z,21.59
2023-03-13T20:17:11.376Z,20.93
2023-03-13T20:19:39.344Z,21.10
2023-03-13T20:22:17.390Z,20.02
2023-03-13T20:24:45.581Z,20.49
2023-03-13T20:27:13.745Z,20.49
2023-03-13T20:29:41.752Z,21.24
2023-03-13T20:32:09.891Z,20.27
2023-03-13T20:34:38.003Z,21.14
2023-03-13T20:37:07.871Z,19.97
2023-03-13T20:39:36.874Z,20.45
2023-03-13T20:42:06.932Z,21.34
2023-03-13T20:44:36.020Z,20.47
2023-03-13T20:47:03.925Z,19.91
2023-03-13T20:49:32.046Z,21.05
2023-03-13T20:51:59.874Z,19.81
2023-03-13T20:54:27.998Z,20.74
2023-03-13T20:56:58.319Z,19.63
2023-03-13T20:59:28.801Z,20.17
2023-03-13T21:01:56.808Z,19.71
2023-03-13T21:04:25.921Z,19.71
2023-03-13T21:06:54.435Z,21.28
2023-03-13T21:09:24.744Z,20.76
2023-03-13T21:11:52.988Z,20.54
2023-03-13T21:14:21.078Z,21.19
2023-03-13T21:16:49.175Z,20.48
2023-03-13T21:19:20.192Z,20.46
2023-03-13T21:21:49.898Z,20.48
2023-03-13T21:24:19.204Z,20.23
2023-03-13T21:26:47.286Z,20.46
2023-03-13T21:29:15.199Z,20.33
2023-03-13T21:31:43.499Z,20.60
2023-03-13T21:34:11.452Z,21.24
2023-03-13T21:36:42.384Z,20.57
2023-03-13T21:39:14.406Z,19.88
2023-03-13T21:41:42.539Z,21.16
2023-03-13T21:44:11.229Z,21.00
2023-03-13T21:46:39.170Z,20.09
2023-03-13T21:49:07.163Z,21.32
2023-03-13T21:51:35.129Z,20.53
2023-03-13T21:54:03.022Z,21.87
2023-03-13T21:56:32.508Z,20.86
2023-03-13T21:59:00.484Z,20.80
2023-03-13T22:01:28.394Z,20.40
2023-03-13T22:03:56.528Z,21.41
2023-03-13T22:06:27.252Z,20.99
2023-03-13T22:08:55.565Z,21.36
2023-03-13T22:11:23.431Z,21.10
2023-03-13T22:13:52.700Z,21.05
2023-03-13T22:16:21.638Z,20.53
2023-03-13T22:18:49.607Z,20.22
2023-03-13T22:21:19.043Z,20.47
2023-03-13T22:23:47.424Z,21.81
2023-03-13T22:26:15.294Z,21.96
2023-03-13T22:28:43.157Z,21.06
2023-03-13T22:31:12.086Z,21.83
2023-03-13T22:33:40.018Z,20.97
2023-03-13T22:36:08.993Z,21.17
2023-03-13T22:38:39.195Z,20.55
2023-03-13T22:41:09.809Z,21.76
2023-03-13T22:43:37.612Z,21.52
2023-03-13T22:46:08.600Z,20.18
2023-03-13T22:48:39.354Z,20.39
2023-03-13T22:51:09.127Z,22.01
2023-03-13T22:53:38.969Z,22.03
2023-03-13T22:56:10.169Z,21.78
2023-03-13T22:58:39.593Z,21.32
2023-03-13T23:01:13.096Z,21.97
2023-03-13T23:03:41.335Z,20.70
2023-03-13T23:06:14.942Z,21.12
2023-03-13T23:08:43.959Z,21.93
2023-03-13T23:11:12.462Z,22.01
2023-03-13T23:13:42.982Z,21.78
2023-03-13T23:16:12.843Z,21.84
2023-03-13T23:18:42.511Z,22.01
2023-03-13T23:21:14.027Z,21.99
2023-03-13T23:23:42.823Z,21.61
2023-03-13T23:26:14.611Z,21.82
2023-03-13T23:28:42.957Z,21.98
2023-03-13T23:31:14.040Z,21.89
2023-03-13T23:33:42.287Z,21.95
2023-03-13T23:36:16.720Z,21.83
2023-03-13T23:38:44.963Z,21.62
2023-03-13T23:41:14.232Z,21.89
2023-03-13T23:43:42.123Z,21.83
2023-03-13T23:46:26.057Z,21.85
2023-03-13T23:48:58.712Z,21.83
2023-03-13T23:51:26.864Z,21.80
2023-03-13T23:53:54.666Z,21.46
2023-03-13T23:56:22.528Z,21.65
2023-03-13T23:58:53.217Z,21.77
